sensor_id;sensor_type;location;lat;lon;timestamp;P1;durP1;ratioP1;P2;durP2;ratioP2
15667;SDS011;7934;48.710;9.024;2023-07-09T00:01:30;5.80;;;4.00;;
15667;SDS011;7934;48.710;9.024;2023-07-09T00:03:57;4.87;;;4.43;;
15667;SDS011;7934;48.710;9.024;2023-07-09T00:06:24;4.20;;;3.90;;
15667;SDS011;7934;48.710;9.024;2023-07-09T00:08:51;6.73;;;3.83;;
15667;SDS011;7934;48.710;9.024;2023-07-09T00:11:19;4.40;;;3.80;;
15667;SDS011;7934;48.710;9.024;2023-07-09T00:13:47;4.63;;;4.23;;
15667;SDS011;7934;48.710;9.024;2023-07-09T00:16:15;3.77;;;3.47;;
15667;SDS011;7934;48.710;9.024;2023-07-09T00:18:43;4.60;;;4.00;;
15667;SDS011;7934;48.710;9.024;2023-07-09T00:21:13;5.80;;;3.90;;
15667;SDS011;7934;48.710;9.024;2023-07-09T00:23:40;7.17;;;4.13;;
15667;SDS011;7934;48.710;9.024;2023-07-09T00:26:08;5.07;;;4.00;;
15667;SDS011;7934;48.710;9.024;2023-07-09T00:28:35;6.83;;;4.47;;
15667;SDS011;7934;48.710;9.024;2023-07-09T00:31:04;3.87;;;3.40;;
15667;SDS011;7934;48.710;9.024;2023-07-09T00:33:31;4.73;;;3.60;;
15667;SDS011;7934;48.710;9.024;2023-07-09T00:35:58;3.80;;;3.43;;
15667;SDS011;7934;48.710;9.024;2023-07-09T00:38:26;7.27;;;4.60;;
15667;SDS011;7934;48.710;9.024;2023-07-09T00:40:59;4.80;;;4.03;;
15667;SDS011;7934;48.710;9.024;2023-07-09T00:43:29;7.37;;;4.07;;
15667;SDS011;7934;48.710;9.024;2023-07-09T00:46:16;5.10;;;3.67;;
15667;SDS011;7934;48.710;9.024;2023-07-09T00:48:44;3.80;;;3.50;;
15667;SDS011;7934;48.710;9.024;2023-07-09T00:51:13;12.63;;;4.53;;
15667;SDS011;7934;48.710;9.024;2023-07-09T00:53:40;6.03;;;3.97;;
15667;SDS011;7934;48.710;9.024;2023-07-09T00:56:11;5.37;;;3.90;;
15667;SDS011;7934;48.710;9.024;2023-07-09T00:58:40;4.80;;;3.70;;
15667;SDS011;7934;48.710;9.024;2023-07-09T01:01:09;5.87;;;3.80;;
15667;SDS011;7934;48.710;9.024;2023-07-09T01:03:42;4.30;;;3.90;;
15667;SDS011;7934;48.710;9.024;2023-07-09T01:06:11;4.30;;;3.90;;
15667;SDS011;7934;48.710;9.024;2023-07-09T01:08:39;5.47;;;3.90;;
15667;SDS011;7934;48.710;9.024;2023-07-09T01:11:13;6.37;;;3.80;;
15667;SDS011;7934;48.710;9.024;2023-07-09T01:13:46;8.13;;;3.90;;
15667;SDS011;7934;48.710;9.024;2023-07-09T01:16:13;5.20;;;3.80;;
15667;SDS011;7934;48.710;9.024;2023-07-09T01:18:43;6.27;;;3.93;;
15667;SDS011;7934;48.710;9.024;2023-07-09T01:21:11;6.63;;;3.73;;
15667;SDS011;7934;48.710;9.024;2023-07-09T01:23:42;4.10;;;3.63;;
15667;SDS011;7934;48.710;9.024;2023-07-09T01:26:09;6.23;;;3.83;;
15667;SDS011;7934;48.710;9.024;2023-07-09T01:28:38;4.10;;;3.70;;
15667;SDS011;7934;48.710;9.024;2023-07-09T01:31:07;6.43;;;4.13;;
15667;SDS011;7934;48.710;9.024;2023-07-09T01:33:34;4.33;;;4.00;;
15667;SDS011;7934;48.710;9.024;2023-07-09T01:36:01;6.20;;;4.00;;
15667;SDS011;7934;48.710;9.024;2023-07-09T01:38:30;9.07;;;4.43;;
15667;SDS011;7934;48.710;9.024;2023-07-09T01:40:57;4.93;;;4.00;;
15667;SDS011;7934;48.710;9.024;2023-07-09T01:43:25;4.57;;;4.03;;
15667;SDS011;7934;48.710;9.024;2023-07-09T01:45:52;4.53;;;3.93;;
15667;SDS011;7934;48.710;9.024;2023-07-09T01:48:23;4.77;;;4.30;;
15667;SDS011;7934;48.710;9.024;2023-07-09T01:50:50;7.07;;;4.10;;
15667;SDS011;7934;48.710;9.024;2023-07-09T01:53:19;5.60;;;4.00;;
15667;SDS011;7934;48.710;9.024;2023-07-09T01:55:50;7.23;;;3.90;;
15667;SDS011;7934;48.710;9.024;2023-07-09T01:58:17;5.67;;;4.37;;
15667;SDS011;7934;48.710;9.024;2023-07-09T02:00:44;4.87;;;3.67;;
15667;SDS011;7934;48.710;9.024;2023-07-09T02:03:11;6.00;;;4.63;;
15667;SDS011;7934;48.710;9.024;2023-07-09T02:05:40;4.60;;;4.10;;
15667;SDS011;7934;48.710;9.024;2023-07-09T02:08:07;4.60;;;4.20;;
15667;SDS011;7934;48.710;9.024;2023-07-09T02:10:34;4.03;;;3.70;;
15667;SDS011;7934;48.710;9.024;2023-07-09T02:13:02;4.87;;;3.70;;
15667;SDS011;7934;48.710;9.024;2023-07-09T02:15:30;4.53;;;4.13;;
15667;SDS011;7934;48.710;9.024;2023-07-09T02:17:57;5.70;;;4.60;;
15667;SDS011;7934;48.710;9.024;2023-07-09T02:20:26;6.47;;;4.83;;
15667;SDS011;7934;48.710;9.024;2023-07-09T02:22:53;4.27;;;3.67;;
15667;SDS011;7934;48.710;9.024;2023-07-09T02:25:21;4.50;;;4.17;;
15667;SDS011;7934;48.710;9.024;2023-07-09T02:27:48;7.67;;;4.43;;
15667;SDS011;7934;48.710;9.024;2023-07-09T02:30:17;4.37;;;4.00;;
15667;SDS011;7934;48.710;9.024;2023-07-09T02:32:44;7.50;;;4.40;;
15667;SDS011;7934;48.710;9.024;2023-07-09T02:35:11;4.60;;;4.20;;
15667;SDS011;7934;48.710;9.024;2023-07-09T02:37:38;5.27;;;4.30;;
15667;SDS011;7934;48.710;9.024;2023-07-09T02:40:11;6.50;;;4.53;;
15667;SDS011;7934;48.710;9.024;2023-07-09T02:42:38;4.73;;;4.33;;
15667;SDS011;7934;48.710;9.024;2023-07-09T02:45:05;6.50;;;4.90;;
15667;SDS011;7934;48.710;9.024;2023-07-09T02:47:34;4.67;;;4.27;;
15667;SDS011;7934;48.710;9.024;2023-07-09T02:50:01;6.73;;;4.77;;
15667;SDS011;7934;48.710;9.024;2023-07-09T02:52:29;8.70;;;4.83;;
15667;SDS011;7934;48.710;9.024;2023-07-09T02:54:56;6.50;;;4.30;;
15667;SDS011;7934;48.710;9.024;2023-07-09T02:57:23;5.20;;;4.70;;
15667;SDS011;7934;48.710;9.024;2023-07-09T02:59:50;12.73;;;4.83;;
15667;SDS011;7934;48.710;9.024;2023-07-09T03:02:18;4.77;;;4.37;;
15667;SDS011;7934;48.710;9.024;2023-07-09T03:04:46;6.70;;;4.60;;
15667;SDS011;7934;48.710;9.024;2023-07-09T03:07:13;6.27;;;4.50;;
15667;SDS011;7934;48.710;9.024;2023-07-09T03:09:40;6.50;;;4.27;;
15667;SDS011;7934;48.710;9.024;2023-07-09T03:12:08;6.20;;;4.20;;
15667;SDS011;7934;48.710;9.024;2023-07-09T03:14:35;8.03;;;5.03;;
15667;SDS011;7934;48.710;9.024;2023-07-09T03:17:03;4.30;;;3.97;;
15667;SDS011;7934;48.710;9.024;2023-07-09T03:19:30;6.83;;;4.13;;
15667;SDS011;7934;48.710;9.024;2023-07-09T03:21:58;4.97;;;4.53;;
15667;SDS011;7934;48.710;9.024;2023-07-09T03:24:25;5.60;;;4.60;;
15667;SDS011;7934;48.710;9.024;2023-07-09T03:26:53;5.40;;;4.90;;
15667;SDS011;7934;48.710;9.024;2023-07-09T03:29:20;6.53;;;4.80;;
15667;SDS011;7934;48.710;9.024;2023-07-09T03:31:47;5.20;;;4.70;;
15667;SDS011;7934;48.710;9.024;2023-07-09T03:34:14;5.27;;;4.73;;
15667;SDS011;7934;48.710;9.024;2023-07-09T03:36:41;9.60;;;4.53;;
15667;SDS011;7934;48.710;9.024;2023-07-09T03:39:10;5.80;;;4.40;;
15667;SDS011;7934;48.710;9.024;2023-07-09T03:41:37;8.27;;;4.50;;
15667;SDS011;7934;48.710;9.024;2023-07-09T03:44:04;6.73;;;4.60;;
15667;SDS011;7934;48.710;9.024;2023-07-09T03:46:31;6.07;;;5.10;;
15667;SDS011;7934;48.710;9.024;2023-07-09T03:48:59;5.30;;;4.80;;
15667;SDS011;7934;48.710;9.024;2023-07-09T03:51:26;6.57;;;4.40;;
15667;SDS011;7934;48.710;9.024;2023-07-09T03:53:53;5.67;;;4.73;;
15667;SDS011;7934;48.710;9.024;2023-07-09T03:56:22;7.63;;;4.80;;
15667;SDS011;7934;48.710;9.024;2023-07-09T03:58:49;5.50;;;4.73;;
15667;SDS011;7934;48.710;9.024;2023-07-09T04:01:17;7.57;;;4.70;;
15667;SDS011;7934;48.710;9.024;2023-07-09T04:03:44;6.53;;;4.70;;
15667;SDS011;7934;48.710;9.024;2023-07-09T04:06:11;9.00;;;4.47;;
15667;SDS011;7934;48.710;9.024;2023-07-09T04:08:38;6.57;;;5.23;;
15667;SDS011;7934;48.710;9.024;2023-07-09T04:11:05;11.90;;;5.00;;
15667;SDS011;7934;48.710;9.024;2023-07-09T04:13:34;5.60;;;5.00;;
15667;SDS011;7934;48.710;9.024;2023-07-09T04:16:01;6.60;;;5.50;;
15667;SDS011;7934;48.710;9.024;2023-07-09T04:18:28;8.87;;;5.23;;
15667;SDS011;7934;48.710;9.024;2023-07-09T04:20:55;7.83;;;5.77;;
15667;SDS011;7934;48.710;9.024;2023-07-09T04:23:23;5.57;;;5.07;;
15667;SDS011;7934;48.710;9.024;2023-07-09T04:25:50;8.53;;;5.20;;
15667;SDS011;7934;48.710;9.024;2023-07-09T04:28:17;8.27;;;4.37;;
15667;SDS011;7934;48.710;9.024;2023-07-09T04:30:47;6.83;;;4.67;;
15667;SDS011;7934;48.710;9.024;2023-07-09T04:33:14;4.67;;;4.23;;
15667;SDS011;7934;48.710;9.024;2023-07-09T04:35:43;8.47;;;4.77;;
15667;SDS011;7934;48.710;9.024;2023-07-09T04:38:10;7.50;;;4.50;;
15667;SDS011;7934;48.710;9.024;2023-07-09T04:40:37;6.33;;;4.37;;
15667;SDS011;7934;48.710;9.024;2023-07-09T04:43:04;6.40;;;4.57;;
15667;SDS011;7934;48.710;9.024;2023-07-09T04:45:31;8.63;;;5.30;;
15667;SDS011;7934;48.710;9.024;2023-07-09T04:48:00;6.20;;;4.47;;
15667;SDS011;7934;48.710;9.024;2023-07-09T04:50:27;5.00;;;4.03;;
15667;SDS011;7934;48.710;9.024;2023-07-09T04:52:54;5.63;;;4.50;;
15667;SDS011;7934;48.710;9.024;2023-07-09T04:55:21;8.83;;;5.07;;
15667;SDS011;7934;48.710;9.024;2023-07-09T04:57:48;7.37;;;4.77;;
15667;SDS011;7934;48.710;9.024;2023-07-09T05:00:16;6.93;;;4.73;;
15667;SDS011;7934;48.710;9.024;2023-07-09T05:02:43;5.23;;;4.70;;
15667;SDS011;7934;48.710;9.024;2023-07-09T05:05:11;7.40;;;5.00;;
15667;SDS011;7934;48.710;9.024;2023-07-09T05:07:39;5.73;;;4.40;;
15667;SDS011;7934;48.710;9.024;2023-07-09T05:10:07;7.50;;;5.23;;
15667;SDS011;7934;48.710;9.024;2023-07-09T05:12:35;7.27;;;5.37;;
15667;SDS011;7934;48.710;9.024;2023-07-09T05:15:02;8.13;;;4.70;;
15667;SDS011;7934;48.710;9.024;2023-07-09T05:17:29;9.87;;;5.20;;
15667;SDS011;7934;48.710;9.024;2023-07-09T05:19:56;9.93;;;5.03;;
15667;SDS011;7934;48.710;9.024;2023-07-09T05:22:25;5.67;;;4.80;;
15667;SDS011;7934;48.710;9.024;2023-07-09T05:24:52;5.43;;;4.93;;
15667;SDS011;7934;48.710;9.024;2023-07-09T05:27:19;5.70;;;4.80;;
15667;SDS011;7934;48.710;9.024;2023-07-09T05:29:46;7.37;;;4.90;;
15667;SDS011;7934;48.710;9.024;2023-07-09T05:32:13;7.67;;;5.07;;
15667;SDS011;7934;48.710;9.024;2023-07-09T05:34:41;7.27;;;5.10;;
15667;SDS011;7934;48.710;9.024;2023-07-09T05:37:08;7.60;;;5.03;;
15667;SDS011;7934;48.710;9.024;2023-07-09T05:39:36;4.63;;;4.33;;
15667;SDS011;7934;48.710;9.024;2023-07-09T05:42:04;5.63;;;4.67;;
15667;SDS011;7934;48.710;9.024;2023-07-09T05:44:32;4.87;;;4.40;;
15667;SDS011;7934;48.710;9.024;2023-07-09T05:46:59;7.77;;;4.90;;
15667;SDS011;7934;48.710;9.024;2023-07-09T05:49:26;6.53;;;4.43;;
15667;SDS011;7934;48.710;9.024;2023-07-09T05:51:53;5.43;;;4.67;;
15667;SDS011;7934;48.710;9.024;2023-07-09T05:54:21;6.27;;;4.93;;
15667;SDS011;7934;48.710;9.024;2023-07-09T05:56:49;4.90;;;4.50;;
15667;SDS011;7934;48.710;9.024;2023-07-09T05:59:17;6.27;;;4.60;;
15667;SDS011;7934;48.710;9.024;2023-07-09T06:01:44;5.90;;;4.50;;
15667;SDS011;7934;48.710;9.024;2023-07-09T06:04:11;6.63;;;4.60;;
15667;SDS011;7934;48.710;9.024;2023-07-09T06:06:38;4.70;;;4.37;;
15667;SDS011;7934;48.710;9.024;2023-07-09T06:09:07;6.17;;;4.53;;
15667;SDS011;7934;48.710;9.024;2023-07-09T06:11:34;6.20;;;4.50;;
15667;SDS011;7934;48.710;9.024;2023-07-09T06:14:02;5.27;;;4.30;;
15667;SDS011;7934;48.710;9.024;2023-07-09T06:16:29;4.53;;;4.13;;
15667;SDS011;7934;48.710;9.024;2023-07-09T06:18:57;5.07;;;3.83;;
15667;SDS011;7934;48.710;9.024;2023-07-09T06:21:24;7.10;;;3.90;;
15667;SDS011;7934;48.710;9.024;2023-07-09T06:23:51;5.87;;;4.80;;
15667;SDS011;7934;48.710;9.024;2023-07-09T06:26:18;4.88;;;4.30;;
15667;SDS011;7934;48.710;9.024;2023-07-09T06:28:45;4.40;;;4.03;;
15667;SDS011;7934;48.710;9.024;2023-07-09T06:31:14;5.05;;;4.55;;
15667;SDS011;7934;48.710;9.024;2023-07-09T06:33:41;4.15;;;3.85;;
15667;SDS011;7934;48.710;9.024;2023-07-09T06:36:08;5.15;;;4.45;;
15667;SDS011;7934;48.710;9.024;2023-07-09T06:38:35;6.00;;;4.68;;
15667;SDS011;7934;48.710;9.024;2023-07-09T06:41:03;5.15;;;3.88;;
15667;SDS011;7934;48.710;9.024;2023-07-09T06:43:30;4.97;;;4.40;;
15667;SDS011;7934;48.710;9.024;2023-07-09T06:45:59;6.40;;;4.18;;
15667;SDS011;7934;48.710;9.024;2023-07-09T06:48:28;4.53;;;4.13;;
15667;SDS011;7934;48.710;9.024;2023-07-09T06:50:56;5.18;;;4.15;;
15667;SDS011;7934;48.710;9.024;2023-07-09T06:53:24;4.72;;;4.03;;
15667;SDS011;7934;48.710;9.024;2023-07-09T06:55:52;5.03;;;4.40;;
15667;SDS011;7934;48.710;9.024;2023-07-09T06:58:20;5.25;;;4.45;;
15667;SDS011;7934;48.710;9.024;2023-07-09T07:00:49;5.80;;;4.32;;
15667;SDS011;7934;48.710;9.024;2023-07-09T07:03:16;4.57;;;3.75;;
15667;SDS011;7934;48.710;9.024;2023-07-09T07:05:45;4.35;;;4.05;;
15667;SDS011;7934;48.710;9.024;2023-07-09T07:08:14;4.43;;;3.92;;
15667;SDS011;7934;48.710;9.024;2023-07-09T07:10:43;4.18;;;3.85;;
15667;SDS011;7934;48.710;9.024;2023-07-09T07:13:10;4.43;;;4.03;;
15667;SDS011;7934;48.710;9.024;2023-07-09T07:15:37;6.25;;;4.43;;
15667;SDS011;7934;48.710;9.024;2023-07-09T07:18:05;6.13;;;4.07;;
15667;SDS011;7934;48.710;9.024;2023-07-09T07:20:32;4.40;;;4.00;;
15667;SDS011;7934;48.710;9.024;2023-07-09T07:23:01;3.97;;;3.70;;
15667;SDS011;7934;48.710;9.024;2023-07-09T07:25:28;7.70;;;3.70;;
15667;SDS011;7934;48.710;9.024;2023-07-09T07:27:56;4.60;;;4.10;;
15667;SDS011;7934;48.710;9.024;2023-07-09T07:30:23;7.25;;;4.32;;
15667;SDS011;7934;48.710;9.024;2023-07-09T07:32:51;5.43;;;4.05;;
15667;SDS011;7934;48.710;9.024;2023-07-09T07:35:18;4.65;;;3.95;;
15667;SDS011;7934;48.710;9.024;2023-07-09T07:37:45;6.68;;;3.97;;
15667;SDS011;7934;48.710;9.024;2023-07-09T07:40:16;6.18;;;4.03;;
15667;SDS011;7934;48.710;9.024;2023-07-09T07:42:43;4.43;;;4.10;;
15667;SDS011;7934;48.710;9.024;2023-07-09T07:45:11;3.95;;;3.63;;
15667;SDS011;7934;48.710;9.024;2023-07-09T07:47:38;5.30;;;4.38;;
15667;SDS011;7934;48.710;9.024;2023-07-09T07:50:06;4.32;;;3.95;;
15667;SDS011;7934;48.710;9.024;2023-07-09T07:52:34;6.65;;;4.38;;
15667;SDS011;7934;48.710;9.024;2023-07-09T07:55:02;4.88;;;3.90;;
15667;SDS011;7934;48.710;9.024;2023-07-09T07:57:31;5.93;;;4.20;;
15667;SDS011;7934;48.710;9.024;2023-07-09T07:59:58;7.65;;;3.75;;
15667;SDS011;7934;48.710;9.024;2023-07-09T08:02:25;6.32;;;4.22;;
15667;SDS011;7934;48.710;9.024;2023-07-09T08:04:53;6.03;;;3.85;;
15667;SDS011;7934;48.710;9.024;2023-07-09T08:07:20;7.13;;;3.88;;
15667;SDS011;7934;48.710;9.024;2023-07-09T08:09:47;6.18;;;4.03;;
15667;SDS011;7934;48.710;9.024;2023-07-09T08:12:14;4.63;;;3.88;;
15667;SDS011;7934;48.710;9.024;2023-07-09T08:14:44;3.90;;;3.60;;
15667;SDS011;7934;48.710;9.024;2023-07-09T08:17:12;3.65;;;3.35;;
15667;SDS011;7934;48.710;9.024;2023-07-09T08:19:45;4.25;;;3.85;;
15667;SDS011;7934;48.710;9.024;2023-07-09T08:22:13;4.65;;;3.97;;
15667;SDS011;7934;48.710;9.024;2023-07-09T08:24:41;5.10;;;3.85;;
15667;SDS011;7934;48.710;9.024;2023-07-09T08:27:08;4.80;;;3.97;;
15667;SDS011;7934;48.710;9.024;2023-07-09T08:29:35;4.10;;;3.70;;
15667;SDS011;7934;48.710;9.024;2023-07-09T08:32:06;4.65;;;4.25;;
15667;SDS011;7934;48.710;9.024;2023-07-09T08:34:33;4.32;;;4.10;;
15667;SDS011;7934;48.710;9.024;2023-07-09T08:37:01;7.78;;;3.40;;
15667;SDS011;7934;48.710;9.024;2023-07-09T08:39:28;8.90;;;3.50;;
15667;SDS011;7934;48.710;9.024;2023-07-09T08:41:57;4.07;;;3.78;;
15667;SDS011;7934;48.710;9.024;2023-07-09T08:44:30;4.78;;;3.58;;
15667;SDS011;7934;48.710;9.024;2023-07-09T08:47:00;3.85;;;3.53;;
15667;SDS011;7934;48.710;9.024;2023-07-09T08:49:33;3.60;;;3.30;;
15667;SDS011;7934;48.710;9.024;2023-07-09T08:52:02;5.20;;;3.33;;
15667;SDS011;7934;48.710;9.024;2023-07-09T08:54:31;7.45;;;3.70;;
15667;SDS011;7934;48.710;9.024;2023-07-09T08:57:02;3.33;;;3.08;;
15667;SDS011;7934;48.710;9.024;2023-07-09T08:59:34;7.45;;;4.60;;
15667;SDS011;7934;48.710;9.024;2023-07-09T09:02:01;4.03;;;3.72;;
15667;SDS011;7934;48.710;9.024;2023-07-09T09:04:35;4.10;;;3.72;;
15667;SDS011;7934;48.710;9.024;2023-07-09T09:07:16;3.97;;;3.33;;
15667;SDS011;7934;48.710;9.024;2023-07-09T09:09:46;4.80;;;3.88;;
15667;SDS011;7934;48.710;9.024;2023-07-09T09:12:19;4.55;;;3.90;;
15667;SDS011;7934;48.710;9.024;2023-07-09T09:14:49;4.20;;;3.90;;
15667;SDS011;7934;48.710;9.024;2023-07-09T09:17:20;4.03;;;3.58;;
15667;SDS011;7934;48.710;9.024;2023-07-09T09:19:50;5.25;;;4.00;;
15667;SDS011;7934;48.710;9.024;2023-07-09T09:22:21;3.97;;;3.55;;
15667;SDS011;7934;48.710;9.024;2023-07-09T09:24:53;3.80;;;3.55;;
15667;SDS011;7934;48.710;9.024;2023-07-09T09:27:22;4.50;;;4.10;;
15667;SDS011;7934;48.710;9.024;2023-07-09T09:29:49;4.55;;;4.20;;
15667;SDS011;7934;48.710;9.024;2023-07-09T09:32:18;5.43;;;4.25;;
15667;SDS011;7934;48.710;9.024;2023-07-09T09:34:48;6.35;;;3.75;;
15667;SDS011;7934;48.710;9.024;2023-07-09T09:39:47;3.60;;;3.30;;
15667;SDS011;7934;48.710;9.024;2023-07-09T09:42:14;5.45;;;3.92;;
15667;SDS011;7934;48.710;9.024;2023-07-09T09:44:43;3.42;;;3.20;;
15667;SDS011;7934;48.710;9.024;2023-07-09T09:47:10;4.38;;;3.20;;
15667;SDS011;7934;48.710;9.024;2023-07-09T09:49:38;5.07;;;3.65;;
15667;SDS011;7934;48.710;9.024;2023-07-09T09:52:11;5.57;;;3.67;;
15667;SDS011;7934;48.710;9.024;2023-07-09T09:54:40;4.05;;;3.33;;
15667;SDS011;7934;48.710;9.024;2023-07-09T09:57:14;4.13;;;3.35;;
15667;SDS011;7934;48.710;9.024;2023-07-09T09:59:42;5.32;;;3.55;;
15667;SDS011;7934;48.710;9.024;2023-07-09T10:02:14;4.88;;;3.55;;
15667;SDS011;7934;48.710;9.024;2023-07-09T10:04:44;4.00;;;3.60;;
15667;SDS011;7934;48.710;9.024;2023-07-09T10:07:14;4.15;;;3.78;;
15667;SDS011;7934;48.710;9.024;2023-07-09T10:09:46;4.28;;;3.42;;
15667;SDS011;7934;48.710;9.024;2023-07-09T10:12:16;4.05;;;3.75;;
15667;SDS011;7934;48.710;9.024;2023-07-09T10:14:47;4.03;;;3.50;;
15667;SDS011;7934;48.710;9.024;2023-07-09T10:17:19;4.00;;;3.60;;
15667;SDS011;7934;48.710;9.024;2023-07-09T10:19:48;3.90;;;3.70;;
15667;SDS011;7934;48.710;9.024;2023-07-09T10:22:22;5.82;;;3.60;;
15667;SDS011;7934;48.710;9.024;2023-07-09T10:24:51;3.60;;;3.20;;
15667;SDS011;7934;48.710;9.024;2023-07-09T10:27:25;6.43;;;3.83;;
15667;SDS011;7934;48.710;9.024;2023-07-09T10:29:59;3.78;;;3.45;;
15667;SDS011;7934;48.710;9.024;2023-07-09T10:32:33;4.65;;;3.60;;
15667;SDS011;7934;48.710;9.024;2023-07-09T10:35:04;5.82;;;3.85;;
15667;SDS011;7934;48.710;9.024;2023-07-09T10:37:39;7.03;;;3.67;;
15667;SDS011;7934;48.710;9.024;2023-07-09T10:40:10;6.18;;;3.80;;
15667;SDS011;7934;48.710;9.024;2023-07-09T10:42:40;4.53;;;4.07;;
15667;SDS011;7934;48.710;9.024;2023-07-09T10:45:09;4.18;;;3.78;;
15667;SDS011;7934;48.710;9.024;2023-07-09T10:47:38;6.65;;;4.30;;
15667;SDS011;7934;48.710;9.024;2023-07-09T10:50:09;4.22;;;3.92;;
15667;SDS011;7934;48.710;9.024;2023-07-09T10:52:41;4.95;;;3.72;;
15667;SDS011;7934;48.710;9.024;2023-07-09T10:55:13;4.07;;;3.70;;
15667;SDS011;7934;48.710;9.024;2023-07-09T10:57:44;6.35;;;3.50;;
15667;SDS011;7934;48.710;9.024;2023-07-09T11:00:14;6.28;;;4.25;;
15667;SDS011;7934;48.710;9.024;2023-07-09T11:02:42;4.55;;;3.83;;
15667;SDS011;7934;48.710;9.024;2023-07-09T11:05:10;5.80;;;4.18;;
15667;SDS011;7934;48.710;9.024;2023-07-09T11:07:38;5.30;;;3.85;;
15667;SDS011;7934;48.710;9.024;2023-07-09T11:10:12;5.15;;;3.40;;
15667;SDS011;7934;48.710;9.024;2023-07-09T11:12:44;4.70;;;3.65;;
15667;SDS011;7934;48.710;9.024;2023-07-09T11:15:13;4.88;;;3.90;;
15667;SDS011;7934;48.710;9.024;2023-07-09T11:17:43;3.72;;;3.40;;
15667;SDS011;7934;48.710;9.024;2023-07-09T11:20:16;4.82;;;3.72;;
15667;SDS011;7934;48.710;9.024;2023-07-09T11:22:50;6.75;;;3.70;;
15667;SDS011;7934;48.710;9.024;2023-07-09T11:25:28;4.80;;;4.40;;
15667;SDS011;7934;48.710;9.024;2023-07-09T11:28:01;4.68;;;3.45;;
15667;SDS011;7934;48.710;9.024;2023-07-09T11:30:29;3.80;;;3.40;;
15667;SDS011;7934;48.710;9.024;2023-07-09T11:32:57;5.30;;;3.50;;
15667;SDS011;7934;48.710;9.024;2023-07-09T11:35:25;4.80;;;3.72;;
15667;SDS011;7934;48.710;9.024;2023-07-09T11:37:53;6.18;;;4.35;;
15667;SDS011;7934;48.710;9.024;2023-07-09T11:40:21;4.15;;;3.78;;
15667;SDS011;7934;48.710;9.024;2023-07-09T11:42:54;4.82;;;3.92;;
15667;SDS011;7934;48.710;9.024;2023-07-09T11:45:23;4.10;;;3.80;;
15667;SDS011;7934;48.710;9.024;2023-07-09T11:47:53;4.13;;;3.70;;
15667;SDS011;7934;48.710;9.024;2023-07-09T11:50:22;4.57;;;3.65;;
15667;SDS011;7934;48.710;9.024;2023-07-09T11:52:51;6.13;;;5.05;;
15667;SDS011;7934;48.710;9.024;2023-07-09T11:55:19;6.78;;;4.03;;
15667;SDS011;7934;48.710;9.024;2023-07-09T11:57:53;7.07;;;3.78;;
15667;SDS011;7934;48.710;9.024;2023-07-09T12:00:20;9.40;;;4.15;;
15667;SDS011;7934;48.710;9.024;2023-07-09T12:02:48;5.53;;;3.90;;
15667;SDS011;7934;48.710;9.024;2023-07-09T12:05:16;5.47;;;3.55;;
15667;SDS011;7934;48.710;9.024;2023-07-09T12:07:45;5.60;;;4.28;;
15667;SDS011;7934;48.710;9.024;2023-07-09T12:10:16;5.68;;;3.72;;
15667;SDS011;7934;48.710;9.024;2023-07-09T12:12:44;4.65;;;3.65;;
15667;SDS011;7934;48.710;9.024;2023-07-09T12:15:15;6.53;;;3.70;;
15667;SDS011;7934;48.710;9.024;2023-07-09T12:17:52;5.05;;;3.88;;
15667;SDS011;7934;48.710;9.024;2023-07-09T12:20:19;7.32;;;4.18;;
15667;SDS011;7934;48.710;9.024;2023-07-09T12:22:46;5.93;;;3.97;;
15667;SDS011;7934;48.710;9.024;2023-07-09T12:25:18;7.43;;;4.10;;
15667;SDS011;7934;48.710;9.024;2023-07-09T12:27:45;6.18;;;4.28;;
15667;SDS011;7934;48.710;9.024;2023-07-09T12:30:13;4.80;;;3.53;;
15667;SDS011;7934;48.710;9.024;2023-07-09T12:32:45;5.63;;;4.03;;
15667;SDS011;7934;48.710;9.024;2023-07-09T12:35:14;5.57;;;3.67;;
15667;SDS011;7934;48.710;9.024;2023-07-09T12:37:42;4.65;;;3.80;;
15667;SDS011;7934;48.710;9.024;2023-07-09T12:40:13;7.03;;;3.92;;
15667;SDS011;7934;48.710;9.024;2023-07-09T12:42:41;4.35;;;3.95;;
15667;SDS011;7934;48.710;9.024;2023-07-09T12:45:12;5.75;;;4.00;;
15667;SDS011;7934;48.710;9.024;2023-07-09T12:47:40;4.93;;;3.75;;
15667;SDS011;7934;48.710;9.024;2023-07-09T12:50:15;4.75;;;3.80;;
15667;SDS011;7934;48.710;9.024;2023-07-09T12:52:47;6.18;;;3.80;;
15667;SDS011;7934;48.710;9.024;2023-07-09T12:55:21;3.40;;;3.20;;
15667;SDS011;7934;48.710;9.024;2023-07-09T12:57:48;6.28;;;3.70;;
15667;SDS011;7934;48.710;9.024;2023-07-09T13:00:16;8.45;;;4.38;;
15667;SDS011;7934;48.710;9.024;2023-07-09T13:02:44;5.75;;;3.97;;
15667;SDS011;7934;48.710;9.024;2023-07-09T13:05:18;5.80;;;3.75;;
15667;SDS011;7934;48.710;9.024;2023-07-09T13:07:46;7.00;;;3.92;;
15667;SDS011;7934;48.710;9.024;2023-07-09T13:10:15;5.85;;;4.20;;
15667;SDS011;7934;48.710;9.024;2023-07-09T13:12:44;9.43;;;3.63;;
15667;SDS011;7934;48.710;9.024;2023-07-09T13:15:23;8.23;;;3.97;;
15667;SDS011;7934;48.710;9.024;2023-07-09T13:17:56;4.47;;;4.07;;
15667;SDS011;7934;48.710;9.024;2023-07-09T13:20:24;9.38;;;4.43;;
15667;SDS011;7934;48.710;9.024;2023-07-09T13:22:51;5.93;;;3.78;;
15667;SDS011;7934;48.710;9.024;2023-07-09T13:25:19;6.53;;;3.95;;
15667;SDS011;7934;48.710;9.024;2023-07-09T13:27:46;5.18;;;3.60;;
15667;SDS011;7934;48.710;9.024;2023-07-09T13:30:13;5.57;;;3.63;;
15667;SDS011;7934;48.710;9.024;2023-07-09T13:32:40;10.07;;;4.25;;
15667;SDS011;7934;48.710;9.024;2023-07-09T13:35:12;6.32;;;3.60;;
15667;SDS011;7934;48.710;9.024;2023-07-09T13:37:41;6.05;;;3.90;;
15667;SDS011;7934;48.710;9.024;2023-07-09T13:40:09;7.25;;;4.38;;
15667;SDS011;7934;48.710;9.024;2023-07-09T13:42:37;4.22;;;3.85;;
15667;SDS011;7934;48.710;9.024;2023-07-09T13:45:08;5.47;;;3.75;;
15667;SDS011;7934;48.710;9.024;2023-07-09T13:47:38;6.35;;;4.10;;
15667;SDS011;7934;48.710;9.024;2023-07-09T13:50:06;8.02;;;3.97;;
15667;SDS011;7934;48.710;9.024;2023-07-09T13:52:33;5.82;;;3.97;;
15667;SDS011;7934;48.710;9.024;2023-07-09T13:55:02;7.95;;;3.75;;
15667;SDS011;7934;48.710;9.024;2023-07-09T13:57:30;4.20;;;3.90;;
15667;SDS011;7934;48.710;9.024;2023-07-09T13:59:57;7.57;;;3.83;;
15667;SDS011;7934;48.710;9.024;2023-07-09T14:02:24;3.85;;;3.35;;
15667;SDS011;7934;48.710;9.024;2023-07-09T14:04:56;4.05;;;3.35;;
15667;SDS011;7934;48.710;9.024;2023-07-09T14:07:25;3.67;;;3.40;;
15667;SDS011;7934;48.710;9.024;2023-07-09T14:09:52;4.90;;;3.47;;
15667;SDS011;7934;48.710;9.024;2023-07-09T14:12:21;4.55;;;3.17;;
15667;SDS011;7934;48.710;9.024;2023-07-09T14:14:49;4.43;;;3.70;;
15667;SDS011;7934;48.710;9.024;2023-07-09T14:17:16;5.50;;;3.40;;
15667;SDS011;7934;48.710;9.024;2023-07-09T14:19:43;8.40;;;3.53;;
15667;SDS011;7934;48.710;9.024;2023-07-09T14:22:18;4.43;;;3.08;;
15667;SDS011;7934;48.710;9.024;2023-07-09T14:24:47;7.13;;;3.40;;
15667;SDS011;7934;48.710;9.024;2023-07-09T14:27:14;5.70;;;3.70;;
15667;SDS011;7934;48.710;9.024;2023-07-09T14:29:43;7.38;;;3.58;;
15667;SDS011;7934;48.710;9.024;2023-07-09T14:32:13;5.03;;;3.60;;
15667;SDS011;7934;48.710;9.024;2023-07-09T14:34:49;5.45;;;3.05;;
15667;SDS011;7934;48.710;9.024;2023-07-09T14:37:16;4.60;;;3.58;;
15667;SDS011;7934;48.710;9.024;2023-07-09T14:39:43;3.33;;;3.03;;
15667;SDS011;7934;48.710;9.024;2023-07-09T14:42:11;4.72;;;2.95;;
15667;SDS011;7934;48.710;9.024;2023-07-09T14:44:39;4.80;;;3.40;;
15667;SDS011;7934;48.710;9.024;2023-07-09T14:47:10;5.20;;;3.50;;
15667;SDS011;7934;48.710;9.024;2023-07-09T14:49:38;7.65;;;3.38;;
15667;SDS011;7934;48.710;9.024;2023-07-09T14:52:08;7.72;;;3.50;;
15667;SDS011;7934;48.710;9.024;2023-07-09T14:54:37;4.93;;;3.45;;
15667;SDS011;7934;48.710;9.024;2023-07-09T14:57:04;3.58;;;3.25;;
15667;SDS011;7934;48.710;9.024;2023-07-09T14:59:33;3.47;;;3.25;;
15667;SDS011;7934;48.710;9.024;2023-07-09T15:02:00;4.47;;;3.42;;
15667;SDS011;7934;48.710;9.024;2023-07-09T15:04:29;8.32;;;3.70;;
15667;SDS011;7934;48.710;9.024;2023-07-09T15:06:58;3.60;;;3.40;;
15667;SDS011;7934;48.710;9.024;2023-07-09T15:09:26;4.15;;;3.70;;
15667;SDS011;7934;48.710;9.024;2023-07-09T15:11:53;4.18;;;3.25;;